createdAt,value
2023-03-15T00:00:25.456Z,26.41
2023-03-15T00:02:56.811Z,26.95
2023-03-15T00:05:27.607Z,27.67
2023-03-15T00:07:59.001Z,27.98
2023-03-15T00:10:31.300Z,28.07
2023-03-15T00:13:02.677Z,27.48
2023-03-15T00:15:33.326Z,27.67
2023-03-15T00:18:04.900Z,27.59
2023-03-15T00:20:36.278Z,26.00
2023-03-15T00:23:07.476Z,27.21
2023-03-15T00:25:38.244Z,27.53
2023-03-15T00:28:09.559Z,27.29
2023-03-15T00:30:40.987Z,28.00
2023-03-15T00:33:15.271Z,28.83
2023-03-15T00:35:48.111Z,28.02
2023-03-15T00:38:20.214Z,27.97
2023-03-15T00:40:50.952Z,27.55
2023-03-15T00:43:22.056Z,27.58
2023-03-15T00:45:53.220Z,26.77
2023-03-15T00:48:24.490Z,25.76
2023-03-15T00:51:05.980Z,26.58
2023-03-15T00:53:38.849Z,27.63
2023-03-15T00:56:18.394Z,27.34
2023-03-15T00:58:50.518Z,27.55
2023-03-15T01:01:27.845Z,28.52
2023-03-15T01:04:00.147Z,28.04
2023-03-15T01:06:32.052Z,28.24
2023-03-15T01:09:04.099Z,28.43
2023-03-15T01:11:34.774Z,27.72
2023-03-15T01:14:07.578Z,28.17
2023-03-15T01:16:38.825Z,28.68
2023-03-15T01:19:15.260Z,27.10
2023-03-15T01:21:49.337Z,28.16
2023-03-15T01:24:21.331Z,28.68
2023-03-15T01:26:54.181Z,28.87
2023-03-15T01:29:25.577Z,29.21
2023-03-15T01:31:57.003Z,28.86
2023-03-15T01:34:28.491Z,28.09
2023-03-15T01:37:00.003Z,28.26
2023-03-15T01:39:36.912Z,29.03
2023-03-15T01:42:07.745Z,29.21
2023-03-15T01:44:55.492Z,28.51
2023-03-15T01:47:29.888Z,28.14
2023-03-15T01:50:09.625Z,28.94
2023-03-15T01:52:42.624Z,30.08
2023-03-15T01:55:22.304Z,27.62
2023-03-15T01:58:14.965Z,28.34
2023-03-15T02:00:48.464Z,27.73
2023-03-15T02:03:28.033Z,28.24
2023-03-15T02:06:06.959Z,27.45
2023-03-15T02:08:54.435Z,26.80
2023-03-15T02:11:28.499Z,29.23
2023-03-15T02:14:00.657Z,28.80
2023-03-15T02:16:32.877Z,28.42
2023-03-15T02:19:20.717Z,28.72
2023-03-15T02:22:09.353Z,28.82
2023-03-15T02:25:13.344Z,29.16
2023-03-15T02:27:46.173Z,28.38
2023-03-15T02:30:19.292Z,27.94
2023-03-15T02:32:51.173Z,29.24
2023-03-15T02:35:30.738Z,28.96
2023-03-15T02:38:04.279Z,28.73
2023-03-15T02:40:36.154Z,29.27
2023-03-15T02:43:13.386Z,29.34
2023-03-15T02:45:45.442Z,29.42
2023-03-15T02:48:17.072Z,30.01
2023-03-15T02:50:48.780Z,28.21
2023-03-15T02:53:24.590Z,28.07
2023-03-15T02:55:56.223Z,28.26
2023-03-15T02:58:28.033Z,28.73
2023-03-15T03:01:00.262Z,28.47
2023-03-15T03:03:31.488Z,28.28
2023-03-15T03:06:05.175Z,28.94
2023-03-15T03:08:36.684Z,28.51
2023-03-15T03:11:09.864Z,28.39
2023-03-15T03:13:41.397Z,28.29
2023-03-15T03:16:13.626Z,28.29
2023-03-15T03:18:46.484Z,28.18
2023-03-15T03:21:17.133Z,28.48
2023-03-15T03:23:48.436Z,28.58
2023-03-15T03:26:20.228Z,28.06
2023-03-15T03:28:53.558Z,28.51
2023-03-15T03:31:27.993Z,27.87
2023-03-15T03:34:00.326Z,28.17
2023-03-15T03:36:33.228Z,28.03
2023-03-15T03:39:06.072Z,28.34
2023-03-15T03:41:38.080Z,27.17
2023-03-15T03:44:10.420Z,27.95
2023-03-15T03:46:42.767Z,28.27
2023-03-15T03:49:16.332Z,27.63
2023-03-15T03:51:47.451Z,27.87
2023-03-15T03:54:19.898Z,27.83
2023-03-15T03:56:51.456Z,28.83
2023-03-15T03:59:24.704Z,28.25
2023-03-15T04:02:05.412Z,28.71
2023-03-15T04:04:38.620Z,28.10
2023-03-15T04:07:12.863Z,27.68
2023-03-15T04:09:45.214Z,27.90
2023-03-15T04:12:17.082Z,27.86
2023-03-15T04:14:49.900Z,27.12
2023-03-15T04:17:22.243Z,27.16
2023-03-15T04:19:54.249Z,27.61
2023-03-15T04:22:30.821Z,27.29
2023-03-15T04:25:28.097Z,27.65
2023-03-15T04:28:14.412Z,27.30
2023-03-15T04:30:53.288Z,27.90
2023-03-15T04:33:50.567Z,28.09
2023-03-15T04:36:44.205Z,27.94
2023-03-15T04:39:32.198Z,27.36
2023-03-15T04:42:30.004Z,27.26
2023-03-15T04:45:30.500Z,27.48
2023-03-15T04:48:02.920Z,27.40
2023-03-15T04:50:43.718Z,27.85
2023-03-15T04:53:22.114Z,27.53
2023-03-15T04:56:22.378Z,26.81
2023-03-15T04:59:12.686Z,27.50
2023-03-15T05:02:16.144Z,26.99
2023-03-15T05:05:19.788Z,26.86
2023-03-15T05:08:17.358Z,27.06
2023-03-15T05:11:06.508Z,26.58
2023-03-15T05:14:09.986Z,26.68
2023-03-15T05:17:06.976Z,26.31
2023-03-15T05:19:50.610Z,26.67
2023-03-15T05:22:37.761Z,26.08
2023-03-15T05:25:27.223Z,25.13
2023-03-15T05:28:28.670Z,25.02
2023-03-15T05:31:25.512Z,24.95
2023-03-15T05:34:14.758Z,25.04
2023-03-15T05:37:04.042Z,24.32
2023-03-15T05:40:02.932Z,24.20
2023-03-15T05:42:34.750Z,23.54
2023-03-15T05:45:32.356Z,23.64
2023-03-15T05:48:23.528Z,23.73
2023-03-15T05:51:01.603Z,23.19
2023-03-15T05:53:50.379Z,23.21
2023-03-15T05:56:52.537Z,23.15
2023-03-15T05:59:38.766Z,22.89
2023-03-15T06:02:18.847Z,23.12
2023-03-15T06:05:03.535Z,22.89
2023-03-15T06:07:34.918Z,22.38
2023-03-15T06:10:08.243Z,22.42
2023-03-15T06:12:39.488Z,22.27
2023-03-15T06:15:11.345Z,22.37
2023-03-15T06:17:43.126Z,22.51
2023-03-15T06:20:14.797Z,22.13
2023-03-15T06:22:46.668Z,21.94
2023-03-15T06:25:38.403Z,21.62
2023-03-15T06:28:10.103Z,21.67
2023-03-15T06:30:45.885Z,21.92
2023-03-15T06:33:18.283Z,21.56
2023-03-15T06:35:50.983Z,21.48
2023-03-15T06:38:22.432Z,21.85
2023-03-15T06:40:53.225Z,21.36
2023-03-15T06:43:24.817Z,21.29
2023-03-15T06:45:58.275Z,21.06
2023-03-15T06:48:33.143Z,20.88
2023-03-15T06:51:07.388Z,21.03
2023-03-15T06:53:39.772Z,20.85
2023-03-15T06:56:11.413Z,20.98
2023-03-15T06:58:42.787Z,20.92
2023-03-15T07:01:16.276Z,20.80
2023-03-15T07:03:47.734Z,20.80
2023-03-15T07:06:18.946Z,20.53
2023-03-15T07:08:50.302Z,20.33
2023-03-15T07:11:22.374Z,20.52
2023-03-15T07:13:53.632Z,20.44
2023-03-15T07:16:25.284Z,20.40
2023-03-15T07:18:58.007Z,19.89
2023-03-15T07:21:29.936Z,19.99
2023-03-15T07:24:01.094Z,19.86
2023-03-15T07:26:32.532Z,20.07
2023-03-15T07:29:03.657Z,20.06
2023-03-15T07:31:35.237Z,19.84
2023-03-15T07:34:06.376Z,19.78
2023-03-15T07:36:38.397Z,20.21
2023-03-15T07:39:09.609Z,20.07
2023-03-15T07:41:41.069Z,19.40
2023-03-15T07:44:24.403Z,19.54
2023-03-15T07:46:57.369Z,19.58
2023-03-15T07:49:28.614Z,19.63
2023-03-15T07:52:00.133Z,19.63
2023-03-15T07:54:33.138Z,19.31
2023-03-15T07:57:04.446Z,19.41
2023-03-15T07:59:35.820Z,19.32
2023-03-15T08:02:07.544Z,19.04
2023-03-15T08:04:38.126Z,19.04
2023-03-15T08:07:12.703Z,18.97
2023-03-15T08:09:43.985Z,19.34
2023-03-15T08:12:15.441Z,19.48
2023-03-15T08:14:46.063Z,19.27
2023-03-15T08:17:17.734Z,19.25
2023-03-15T08:19:49.057Z,19.05
2023-03-15T08:22:20.950Z,19.10
2023-03-15T08:24:54.803Z,19.04
2023-03-15T08:27:29.900Z,18.86
2023-03-15T08:30:01.575Z,18.95
2023-03-15T08:32:35.020Z,18.64
2023-03-15T08:35:07.003Z,18.76
2023-03-15T08:37:38.489Z,18.67
2023-03-15T08:40:12.678Z,18.95
2023-03-15T08:42:44.112Z,18.74
2023-03-15T08:45:14.913Z,18.67
2023-03-15T08:47:46.007Z,18.58
2023-03-15T08:50:20.607Z,18.57
2023-03-15T08:52:52.251Z,18.50
2023-03-15T08:55:22.884Z,18.50
2023-03-15T08:57:53.987Z,18.51
2023-03-15T09:00:26.513Z,18.48
2023-03-15T09:02:57.809Z,18.22
2023-03-15T09:05:30.134Z,18.29
2023-03-15T09:08:03.314Z,18.16
2023-03-15T09:10:35.846Z,18.22
2023-03-15T09:13:07.069Z,18.08
2023-03-15T09:15:38.217Z,18.16
2023-03-15T09:18:09.793Z,18.22
2023-03-15T09:20:41.267Z,17.93
2023-03-15T09:23:12.574Z,18.05
2023-03-15T09:25:43.300Z,18.30
2023-03-15T09:28:14.968Z,18.32
2023-03-15T09:30:46.276Z,18.21
2023-03-15T09:33:17.689Z,18.26
2023-03-15T09:35:48.894Z,18.16
2023-03-15T09:38:21.698Z,18.15
2023-03-15T09:40:53.234Z,18.20
2023-03-15T09:43:42.485Z,18.17
2023-03-15T09:46:27.433Z,18.05
2023-03-15T09:49:23.793Z,18.08
2023-03-15T09:52:03.462Z,18.03
2023-03-15T09:55:00.905Z,17.75
2023-03-15T09:57:39.783Z,17.73
2023-03-15T10:00:19.883Z,18.08
2023-03-15T10:03:03.078Z,17.85
2023-03-15T10:05:49.034Z,17.53
2023-03-15T10:08:21.431Z,17.68
2023-03-15T10:11:15.624Z,17.79
2023-03-15T10:14:06.852Z,17.79
2023-03-15T10:16:56.421Z,17.87
2023-03-15T10:19:30.194Z,17.80
2023-03-15T10:22:16.607Z,17.56
2023-03-15T10:25:09.286Z,17.61
2023-03-15T10:27:56.812Z,17.44
2023-03-15T10:30:34.597Z,17.18
2023-03-15T10:33:25.866Z,17.17
2023-03-15T10:36:09.703Z,16.87
2023-03-15T10:38:43.349Z,16.83
2023-03-15T10:41:23.423Z,16.70
2023-03-15T10:44:30.632Z,16.75
2023-03-15T10:47:23.151Z,16.88
2023-03-15T10:50:00.338Z,16.98
2023-03-15T10:52:42.643Z,16.98
2023-03-15T10:55:20.164Z,17.10
2023-03-15T10:58:02.480Z,16.96
2023-03-15T11:00:36.149Z,16.87
2023-03-15T11:03:18.848Z,16.67
2023-03-15T11:05:54.964Z,16.68
2023-03-15T11:08:40.817Z,16.66
2023-03-15T11:11:12.466Z,16.62
2023-03-15T11:13:44.910Z,16.67
2023-03-15T11:16:16.468Z,16.24
2023-03-15T11:18:50.212Z,16.44
2023-03-15T11:21:23.096Z,16.63
2023-03-15T11:23:54.661Z,16.68
2023-03-15T11:26:35.065Z,16.50
2023-03-15T11:29:28.160Z,16.58
2023-03-15T11:32:00.743Z,16.26
2023-03-15T11:34:51.331Z,16.21
2023-03-15T11:37:25.896Z,16.28
2023-03-15T11:40:18.497Z,16.25
2023-03-15T11:43:12.312Z,16.14
2023-03-15T11:45:58.007Z,16.03
2023-03-15T11:48:51.004Z,15.93
2023-03-15T11:51:22.381Z,15.99
2023-03-15T11:54:09.835Z,15.84
2023-03-15T11:56:54.852Z,15.53
2023-03-15T11:59:34.019Z,15.71
2023-03-15T12:02:28.386Z,15.83
2023-03-15T12:05:06.273Z,15.72
2023-03-15T12:08:19.032Z,15.47
2023-03-15T12:10:51.271Z,15.46
2023-03-15T12:13:27.548Z,15.64
2023-03-15T12:16:00.199Z,15.59
2023-03-15T12:18:34.789Z,15.61
2023-03-15T12:21:09.000Z,15.18
2023-03-15T12:23:57.600Z,15.13
2023-03-15T12:26:35.086Z,15.25
2023-03-15T12:29:36.177Z,15.12
2023-03-15T12:32:24.724Z,15.34
2023-03-15T12:34:58.587Z,15.26
2023-03-15T12:37:41.614Z,15.08
2023-03-15T12:40:26.230Z,15.15
2023-03-15T12:42:58.935Z,15.26
2023-03-15T12:45:37.394Z,15.15
2023-03-15T12:48:14.186Z,14.82
2023-03-15T12:50:46.221Z,14.74
2023-03-15T12:53:20.163Z,14.94
2023-03-15T12:56:02.830Z,14.77
2023-03-15T12:58:39.905Z,14.85
2023-03-15T13:01:10.601Z,14.76
2023-03-15T13:03:41.787Z,14.57
2023-03-15T13:06:32.028Z,14.46
2023-03-15T13:09:34.590Z,14.57
2023-03-15T13:12:22.784Z,14.68
2023-03-15T13:14:56.750Z,14.46
2023-03-15T13:18:11.552Z,14.54
2023-03-15T13:21:07.751Z,14.81
2023-03-15T13:23:40.205Z,14.62
2023-03-15T13:26:30.231Z,14.61
2023-03-15T13:29:08.041Z,14.62
2023-03-15T13:31:40.176Z,14.63
2023-03-15T13:34:25.895Z,14.42
2023-03-15T13:37:01.748Z,14.48
2023-03-15T13:39:34.846Z,14.32
2023-03-15T13:42:20.731Z,14.38
2023-03-15T13:45:17.035Z,14.23
2023-03-15T13:47:49.374Z,14.09
2023-03-15T13:50:22.710Z,14.01
2023-03-15T13:52:54.412Z,14.29
2023-03-15T13:55:26.766Z,14.08
2023-03-15T13:58:01.571Z,14.01
2023-03-15T14:00:35.342Z,14.24
2023-03-15T14:03:15.565Z,14.20
2023-03-15T14:05:49.618Z,13.80
2023-03-15T14:08:37.239Z,14.20
2023-03-15T14:11:12.800Z,14.01
2023-03-15T14:13:55.619Z,13.84
2023-03-15T14:17:01.181Z,14.05
2023-03-15T14:19:36.582Z,13.99
2023-03-15T14:22:19.923Z,13.97
2023-03-15T14:24:53.370Z,13.82
2023-03-15T14:27:28.805Z,14.13
2023-03-15T14:30:04.276Z,13.98
2023-03-15T14:32:38.361Z,13.71
2023-03-15T14:35:47.458Z,13.53
2023-03-15T14:38:23.835Z,13.44
2023-03-15T14:40:57.116Z,13.58
2023-03-15T14:43:28.575Z,13.52
2023-03-15T14:45:59.990Z,13.41
2023-03-15T14:48:33.397Z,13.40
2023-03-15T14:51:05.913Z,13.37
2023-03-15T14:53:39.430Z,13.48
2023-03-15T14:56:12.513Z,13.28
2023-03-15T14:58:44.654Z,13.39
2023-03-15T15:01:18.885Z,13.46
2023-03-15T15:03:53.803Z,13.37
2023-03-15T15:06:24.946Z,13.23
2023-03-15T15:09:00.199Z,13.34
2023-03-15T15:11:31.356Z,13.34
2023-03-15T15:14:02.676Z,13.49
2023-03-15T15:16:34.095Z,13.32
2023-03-15T15:19:06.313Z,13.29
2023-03-15T15:21:38.088Z,13.28
2023-03-15T15:24:20.943Z,12.86
2023-03-15T15:26:52.287Z,12.59
2023-03-15T15:29:23.586Z,12.67
2023-03-15T15:31:55.103Z,12.81
2023-03-15T15:34:26.364Z,13.15
2023-03-15T15:36:58.389Z,12.97
2023-03-15T15:39:31.077Z,12.95
2023-03-15T15:42:02.295Z,13.02
2023-03-15T15:44:33.428Z,13.02
2023-03-15T15:47:04.560Z,12.73
2023-03-15T15:49:35.616Z,12.99
2023-03-15T15:52:07.180Z,13.12
2023-03-15T15:54:38.957Z,12.87
2023-03-15T15:57:14.506Z,12.83
2023-03-15T15:59:46.410Z,12.91
2023-03-15T16:02:23.616Z,12.99
2023-03-15T16:04:56.533Z,12.94
2023-03-15T16:07:27.734Z,12.87
2023-03-15T16:09:59.430Z,12.68
2023-03-15T16:12:30.774Z,12.77
2023-03-15T16:15:02.208Z,12.70
2023-03-15T16:17:32.985Z,12.68
2023-03-15T16:20:08.500Z,12.63
2023-03-15T16:22:41.496Z,12.61
2023-03-15T16:25:18.345Z,12.60
2023-03-15T16:27:49.621Z,12.58
2023-03-15T16:30:28.932Z,12.61
2023-03-15T16:33:00.320Z,12.57
2023-03-15T16:35:37.430Z,12.57
2023-03-15T16:38:10.379Z,12.52
2023-03-15T16:40:43.928Z,12.58
2023-03-15T16:43:16.067Z,12.42
2023-03-15T16:45:47.855Z,12.41
2023-03-15T16:48:19.225Z,12.47
2023-03-15T16:50:50.434Z,12.44
2023-03-15T16:53:21.676Z,12.60
2023-03-15T16:55:53.501Z,12.33
2023-03-15T16:58:24.968Z,12.02
2023-03-15T17:00:56.217Z,12.02
2023-03-15T17:03:29.081Z,11.99
2023-03-15T17:06:00.707Z,11.97
2023-03-15T17:08:32.057Z,11.90
2023-03-15T17:11:03.969Z,12.26
2023-03-15T17:13:36.099Z,12.20
2023-03-15T17:16:08.205Z,12.52
2023-03-15T17:18:39.620Z,12.32
2023-03-15T17:21:16.517Z,12.32
2023-03-15T17:23:49.668Z,12.35
2023-03-15T17:26:25.953Z,12.32
2023-03-15T17:28:57.840Z,12.36
2023-03-15T17:31:30.248Z,12.28
2023-03-15T17:34:00.707Z,12.21
2023-03-15T17:36:35.684Z,12.28
2023-03-15T17:39:08.332Z,12.26
2023-03-15T17:41:42.851Z,11.90
2023-03-15T17:44:14.621Z,11.64
2023-03-15T17:46:45.820Z,11.41
2023-03-15T17:49:17.802Z,11.31
2023-03-15T17:51:49.117Z,11.20
2023-03-15T17:54:20.847Z,11.45
2023-03-15T17:56:53.454Z,11.36
2023-03-15T17:59:24.555Z,11.37
2023-03-15T18:01:55.836Z,11.31
2023-03-15T18:04:27.550Z,11.30
2023-03-15T18:06:59.068Z,11.39
2023-03-15T18:09:30.720Z,11.20
2023-03-15T18:12:01.851Z,11.29
2023-03-15T18:14:38.674Z,11.25
2023-03-15T18:17:10.011Z,11.17
2023-03-15T18:19:41.625Z,11.34
2023-03-15T18:22:18.345Z,11.23
2023-03-15T18:24:49.892Z,11.33
2023-03-15T18:27:21.412Z,11.32
2023-03-15T18:29:54.089Z,11.31
2023-03-15T18:32:25.362Z,11.37
2023-03-15T18:34:57.976Z,11.45
2023-03-15T18:37:29.411Z,11.57
2023-03-15T18:40:00.726Z,11.59
2023-03-15T18:42:33.123Z,11.84
2023-03-15T18:45:04.617Z,12.03
2023-03-15T18:47:36.118Z,12.36
2023-03-15T18:50:10.548Z,12.36
2023-03-15T18:52:42.393Z,12.39
2023-03-15T18:55:18.395Z,12.53
2023-03-15T18:57:51.354Z,12.70
2023-03-15T19:00:27.388Z,12.63
2023-03-15T19:03:01.289Z,12.71
2023-03-15T19:05:34.938Z,12.85
2023-03-15T19:08:06.882Z,13.02
2023-03-15T19:10:38.132Z,12.91
2023-03-15T19:13:09.973Z,13.05
2023-03-15T19:15:41.373Z,13.30
2023-03-15T19:18:12.758Z,13.84
2023-03-15T19:20:44.090Z,14.23
2023-03-15T19:23:15.555Z,14.28
2023-03-15T19:25:47.740Z,14.34
2023-03-15T19:28:19.116Z,14.31
2023-03-15T19:30:51.516Z,14.91
2023-03-15T19:33:22.635Z,15.02
2023-03-15T19:35:54.778Z,14.50
2023-03-15T19:38:25.467Z,14.68
2023-03-15T19:41:00.420Z,14.73
2023-03-15T19:43:31.615Z,15.01
2023-03-15T19:46:03.417Z,15.07
2023-03-15T19:48:34.348Z,15.64
2023-03-15T19:51:05.981Z,15.93
2023-03-15T19:53:37.363Z,15.88
2023-03-15T19:56:09.969Z,15.90
2023-03-15T19:58:41.632Z,16.02
2023-03-15T20:01:13.034Z,15.97
2023-03-15T20:03:44.737Z,16.41
2023-03-15T20:06:16.348Z,17.12
2023-03-15T20:08:47.214Z,17.67
2023-03-15T20:11:26.409Z,17.45
2023-03-15T20:13:57.641Z,16.55
2023-03-15T20:16:29.258Z,16.62
2023-03-15T20:19:00.615Z,15.79
2023-03-15T20:21:32.013Z,16.43
2023-03-15T20:24:03.379Z,17.10
2023-03-15T20:26:34.474Z,18.15
2023-03-15T20:29:05.697Z,18.38
2023-03-15T20:31:37.151Z,17.45
2023-03-15T20:34:10.544Z,18.10
2023-03-15T20:36:41.982Z,19.03
2023-03-15T20:39:13.323Z,19.29
2023-03-15T20:41:44.465Z,19.20
2023-03-15T20:44:15.621Z,19.47
2023-03-15T20:46:46.828Z,20.04
2023-03-15T20:49:19.003Z,19.98
2023-03-15T20:51:50.226Z,20.32
2023-03-15T20:54:21.379Z,20.73
2023-03-15T20:56:52.650Z,21.17
2023-03-15T20:59:24.789Z,20.48
2023-03-15T21:01:57.282Z,20.30
2023-03-15T21:04:29.577Z,21.19
2023-03-15T21:07:05.863Z,21.49
2023-03-15T21:09:40.377Z,21.05
2023-03-15T21:12:12.093Z,21.68
2023-03-15T21:14:43.920Z,22.35
2023-03-15T21:17:16.119Z,22.52
2023-03-15T21:19:50.383Z,22.06
2023-03-15T21:22:22.171Z,22.39
2023-03-15T21:24:56.105Z,22.61
2023-03-15T21:27:30.794Z,23.31
2023-03-15T21:30:02.797Z,21.75
2023-03-15T21:32:39.448Z,23.31
2023-03-15T21:35:10.987Z,22.13
2023-03-15T21:37:42.182Z,22.23
2023-03-15T21:40:17.632Z,22.99
2023-03-15T21:42:56.526Z,23.69
2023-03-15T21:45:28.190Z,23.22
2023-03-15T21:48:01.563Z,23.63
2023-03-15T21:50:33.103Z,23.84
2023-03-15T21:53:05.001Z,22.90
2023-03-15T21:55:36.355Z,24.33
2023-03-15T21:58:08.088Z,25.47
2023-03-15T22:00:43.439Z,25.23
2023-03-15T22:03:15.603Z,25.49
2023-03-15T22:05:50.730Z,25.11
2023-03-15T22:08:22.846Z,24.92
2023-03-15T22:10:58.742Z,25.02
2023-03-15T22:13:31.614Z,25.62
2023-03-15T22:16:03.024Z,24.59
2023-03-15T22:18:34.421Z,25.50
2023-03-15T22:21:06.266Z,25.60
2023-03-15T22:23:37.796Z,25.16
2023-03-15T22:26:09.795Z,25.47
2023-03-15T22:28:41.294Z,24.96
2023-03-15T22:31:13.242Z,23.92
2023-03-15T22:33:47.913Z,24.81
2023-03-15T22:36:21.205Z,26.38
2023-03-15T22:38:53.672Z,25.75
2023-03-15T22:41:25.870Z,27.44
2023-03-15T22:43:57.782Z,26.14
2023-03-15T22:46:35.209Z,26.56
2023-03-15T22:49:06.899Z,25.08
2023-03-15T22:51:37.422Z,27.16
2023-03-15T22:54:12.128Z,25.79
2023-03-15T22:56:43.428Z,24.48
2023-03-15T22:59:15.021Z,26.04
2023-03-15T23:01:47.222Z,26.79
2023-03-15T23:04:17.951Z,25.41
2023-03-15T23:06:50.646Z,25.72
2023-03-15T23:09:23.346Z,25.98
2023-03-15T23:11:54.435Z,27.94
2023-03-15T23:14:25.788Z,27.35
2023-03-15T23:16:57.212Z,25.20
2023-03-15T23:19:28.656Z,24.95
2023-03-15T23:21:59.891Z,25.89
2023-03-15T23:24:31.176Z,25.87
2023-03-15T23:27:04.941Z,25.51
2023-03-15T23:29:53.035Z,25.68
2023-03-15T23:32:28.759Z,24.96
2023-03-15T23:35:00.097Z,27.98
2023-03-15T23:37:32.922Z,26.27
2023-03-15T23:40:04.176Z,27.00
2023-03-15T23:42:37.131Z,27.20
2023-03-15T23:45:09.237Z,27.58
2023-03-15T23:47:41.647Z,25.57
2023-03-15T23:50:14.895Z,26.76
2023-03-15T23:52:46.104Z,26.00
2023-03-15T23:55:16.633Z,27.48
2023-03-15T23:57:48.107Z,25.98
